Search for airport 
image banner adimage banner adimage banner ad
image banner ad

KSMO - Santa Monica Muni

Located in Santa Monica, United States

ICAO - SMO, IATA - SMO

Data provided by Airmate  

General information

Coordinates: N34°0'57" W118°27'5"
Elevation is 170 feet MSL.
Magnetic variation is 12° East
View others Airports in California

Operational data

Special qualification required
Current time UTC:
Current local time:
Weather
METAR: KSMO 150951Z AUTO 00000KT 10SM CLR 18/14 A2986 RMK AO2 SLP108 T01780139
TAF: KSMO 150532Z 1506/1606 VRB03KT P6SM SKC FM152000 23010KT P6SM SKC FM160400 VRB03KT P6SM SKC
View NOTAMs / SUP AIP / TFR affecting this airport [VIEW]
Communications frequencies: [VIEW]

Runways:

RWY identifierQFULength (ft)Width (ft)SurfaceLDA (ft)
0344°3500150ASPH3500
21224°3500150ASPH3500

Airport contact information

Address: Santa Monica United States

Other aviation service providers

Flight schools

American Flyers

American Flyers
SMO@af.tv+1(310)390-2099

Proteus Air Services

Proteus Air Services
ksmo@proteus.aero+1(310)398-6929

Santa Monica Aviation, Inc.

Santa Monica Aviation, Inc.

Skyward Aviation

Skyward Aviation

Santa Monica Flyers

Santa Monica Flyers

Satellite view of KSMO